sensor_id;sensor_type;location;lat;lon;timestamp;P1;durP1;ratioP1;P2;durP2;ratioP2
71753;SDS011;59593;51.716;7.016;2023-03-26T00:00:42;10.77;;;3.50;;
71753;SDS011;59593;51.716;7.016;2023-03-26T00:03:09;8.30;;;3.50;;
71753;SDS011;59593;51.716;7.016;2023-03-26T00:05:39;11.10;;;3.87;;
71753;SDS011;59593;51.716;7.016;2023-03-26T00:08:05;10.07;;;3.70;;
71753;SDS011;59593;51.716;7.016;2023-03-26T00:10:36;8.97;;;3.83;;
71753;SDS011;59593;51.716;7.016;2023-03-26T00:13:03;9.60;;;3.90;;
71753;SDS011;59593;51.716;7.016;2023-03-26T00:15:30;12.93;;;4.53;;
71753;SDS011;59593;51.716;7.016;2023-03-26T00:17:56;11.87;;;4.40;;
71753;SDS011;59593;51.716;7.016;2023-03-26T00:20:24;13.07;;;5.03;;
71753;SDS011;59593;51.716;7.016;2023-03-26T00:22:51;12.63;;;4.60;;
71753;SDS011;59593;51.716;7.016;2023-03-26T00:25:19;16.70;;;4.60;;
71753;SDS011;59593;51.716;7.016;2023-03-26T00:27:45;19.13;;;5.03;;
71753;SDS011;59593;51.716;7.016;2023-03-26T00:30:12;16.67;;;5.13;;
71753;SDS011;59593;51.716;7.016;2023-03-26T00:32:38;18.33;;;4.90;;
71753;SDS011;59593;51.716;7.016;2023-03-26T00:35:03;13.93;;;5.10;;
71753;SDS011;59593;51.716;7.016;2023-03-26T00:37:29;21.80;;;5.30;;
71753;SDS011;59593;51.716;7.016;2023-03-26T00:39:57;19.07;;;5.13;;
71753;SDS011;59593;51.716;7.016;2023-03-26T00:42:28;25.07;;;5.17;;
71753;SDS011;59593;51.716;7.016;2023-03-26T00:44:54;20.97;;;4.90;;
71753;SDS011;59593;51.716;7.016;2023-03-26T00:47:25;16.67;;;4.67;;
71753;SDS011;59593;51.716;7.016;2023-03-26T00:49:52;20.77;;;5.33;;
71753;SDS011;59593;51.716;7.016;2023-03-26T00:52:18;21.10;;;5.30;;
71753;SDS011;59593;51.716;7.016;2023-03-26T00:54:45;19.80;;;5.40;;
71753;SDS011;59593;51.716;7.016;2023-03-26T00:57:11;19.30;;;5.17;;
71753;SDS011;59593;51.716;7.016;2023-03-26T00:59:37;19.60;;;5.00;;
71753;SDS011;59593;51.716;7.016;2023-03-26T01:02:03;20.80;;;5.40;;
71753;SDS011;59593;51.716;7.016;2023-03-26T01:04:31;24.70;;;5.33;;
71753;SDS011;59593;51.716;7.016;2023-03-26T01:07:08;23.80;;;5.47;;
71753;SDS011;59593;51.716;7.016;2023-03-26T01:09:38;27.70;;;5.23;;
71753;SDS011;59593;51.716;7.016;2023-03-26T01:12:07;21.53;;;4.80;;
71753;SDS011;59593;51.716;7.016;2023-03-26T01:14:41;27.90;;;5.87;;
71753;SDS011;59593;51.716;7.016;2023-03-26T01:17:07;22.07;;;5.53;;
71753;SDS011;59593;51.716;7.016;2023-03-26T01:19:39;29.67;;;6.50;;
71753;SDS011;59593;51.716;7.016;2023-03-26T01:22:09;24.00;;;5.77;;
71753;SDS011;59593;51.716;7.016;2023-03-26T01:24:39;23.40;;;6.47;;
71753;SDS011;59593;51.716;7.016;2023-03-26T01:40:10;22.37;;;5.87;;
71753;SDS011;59593;51.716;7.016;2023-03-26T01:45:53;27.00;;;6.10;;
71753;SDS011;59593;51.716;7.016;2023-03-26T01:48:26;25.03;;;6.43;;
71753;SDS011;59593;51.716;7.016;2023-03-26T01:50:58;20.13;;;5.97;;
71753;SDS011;59593;51.716;7.016;2023-03-26T01:53:23;24.03;;;6.23;;
71753;SDS011;59593;51.716;7.016;2023-03-26T01:56:03;26.77;;;6.20;;
71753;SDS011;59593;51.716;7.016;2023-03-26T01:58:40;25.60;;;5.80;;
71753;SDS011;59593;51.716;7.016;2023-03-26T02:01:25;24.20;;;5.80;;
71753;SDS011;59593;51.716;7.016;2023-03-26T02:04:17;24.77;;;5.40;;
71753;SDS011;59593;51.716;7.016;2023-03-26T02:07:07;22.43;;;5.70;;
71753;SDS011;59593;51.716;7.016;2023-03-26T02:09:59;22.60;;;5.70;;
71753;SDS011;59593;51.716;7.016;2023-03-26T02:12:30;24.90;;;6.43;;
71753;SDS011;59593;51.716;7.016;2023-03-26T02:15:00;28.23;;;5.70;;
71753;SDS011;59593;51.716;7.016;2023-03-26T02:17:27;24.87;;;5.63;;
71753;SDS011;59593;51.716;7.016;2023-03-26T02:19:56;28.47;;;6.17;;
71753;SDS011;59593;51.716;7.016;2023-03-26T02:22:22;33.60;;;6.60;;
71753;SDS011;59593;51.716;7.016;2023-03-26T02:24:53;28.33;;;5.60;;
71753;SDS011;59593;51.716;7.016;2023-03-26T02:27:19;27.30;;;5.90;;
71753;SDS011;59593;51.716;7.016;2023-03-26T02:29:45;33.37;;;6.60;;
71753;SDS011;59593;51.716;7.016;2023-03-26T02:32:12;27.50;;;5.63;;
71753;SDS011;59593;51.716;7.016;2023-03-26T02:34:38;28.07;;;6.00;;
71753;SDS011;59593;51.716;7.016;2023-03-26T02:37:05;31.17;;;6.50;;
71753;SDS011;59593;51.716;7.016;2023-03-26T02:39:31;32.30;;;6.27;;
71753;SDS011;59593;51.716;7.016;2023-03-26T02:41:57;26.37;;;5.97;;
71753;SDS011;59593;51.716;7.016;2023-03-26T02:44:22;23.13;;;5.97;;
71753;SDS011;59593;51.716;7.016;2023-03-26T02:46:48;25.27;;;5.70;;
71753;SDS011;59593;51.716;7.016;2023-03-26T02:49:14;26.13;;;6.07;;
71753;SDS011;59593;51.716;7.016;2023-03-26T02:51:40;32.20;;;6.40;;
71753;SDS011;59593;51.716;7.016;2023-03-26T02:54:05;20.87;;;5.30;;
71753;SDS011;59593;51.716;7.016;2023-03-26T02:56:31;27.57;;;6.13;;
71753;SDS011;59593;51.716;7.016;2023-03-26T02:58:57;23.53;;;5.97;;
71753;SDS011;59593;51.716;7.016;2023-03-26T03:01:23;33.70;;;6.67;;
71753;SDS011;59593;51.716;7.016;2023-03-26T03:03:48;28.43;;;6.20;;
71753;SDS011;59593;51.716;7.016;2023-03-26T03:06:15;23.37;;;6.20;;
71753;SDS011;59593;51.716;7.016;2023-03-26T03:08:42;27.33;;;6.10;;
71753;SDS011;59593;51.716;7.016;2023-03-26T03:11:11;27.17;;;5.67;;
71753;SDS011;59593;51.716;7.016;2023-03-26T03:13:39;31.43;;;6.10;;
71753;SDS011;59593;51.716;7.016;2023-03-26T03:16:05;29.17;;;5.43;;
71753;SDS011;59593;51.716;7.016;2023-03-26T03:18:31;26.80;;;5.80;;
71753;SDS011;59593;51.716;7.016;2023-03-26T03:20:57;29.83;;;6.50;;
71753;SDS011;59593;51.716;7.016;2023-03-26T03:23:23;24.53;;;5.53;;
71753;SDS011;59593;51.716;7.016;2023-03-26T03:25:48;21.40;;;5.60;;
71753;SDS011;59593;51.716;7.016;2023-03-26T03:28:16;25.53;;;5.43;;
71753;SDS011;59593;51.716;7.016;2023-03-26T03:30:43;26.80;;;5.60;;
71753;SDS011;59593;51.716;7.016;2023-03-26T03:33:09;29.53;;;5.60;;
71753;SDS011;59593;51.716;7.016;2023-03-26T03:35:36;22.97;;;5.30;;
71753;SDS011;59593;51.716;7.016;2023-03-26T03:38:03;26.13;;;5.73;;
71753;SDS011;59593;51.716;7.016;2023-03-26T03:40:29;29.77;;;5.57;;
71753;SDS011;59593;51.716;7.016;2023-03-26T03:42:55;28.17;;;6.00;;
71753;SDS011;59593;51.716;7.016;2023-03-26T03:45:21;26.07;;;5.37;;
71753;SDS011;59593;51.716;7.016;2023-03-26T03:47:46;32.53;;;6.33;;
71753;SDS011;59593;51.716;7.016;2023-03-26T03:50:12;28.33;;;5.77;;
71753;SDS011;59593;51.716;7.016;2023-03-26T03:52:38;33.17;;;6.30;;
71753;SDS011;59593;51.716;7.016;2023-03-26T03:55:04;23.57;;;5.53;;
71753;SDS011;59593;51.716;7.016;2023-03-26T03:57:29;22.33;;;5.13;;
71753;SDS011;59593;51.716;7.016;2023-03-26T03:59:57;26.70;;;6.17;;
71753;SDS011;59593;51.716;7.016;2023-03-26T04:02:26;31.73;;;6.33;;
71753;SDS011;59593;51.716;7.016;2023-03-26T04:04:54;25.10;;;5.87;;
71753;SDS011;59593;51.716;7.016;2023-03-26T04:07:24;27.67;;;5.63;;
71753;SDS011;59593;51.716;7.016;2023-03-26T04:09:50;23.50;;;5.30;;
71753;SDS011;59593;51.716;7.016;2023-03-26T04:12:16;23.20;;;5.87;;
71753;SDS011;59593;51.716;7.016;2023-03-26T04:14:42;28.43;;;5.73;;
71753;SDS011;59593;51.716;7.016;2023-03-26T04:17:08;27.53;;;5.57;;
71753;SDS011;59593;51.716;7.016;2023-03-26T04:19:34;22.27;;;5.03;;
71753;SDS011;59593;51.716;7.016;2023-03-26T04:22:00;26.47;;;5.20;;
71753;SDS011;59593;51.716;7.016;2023-03-26T04:24:26;26.77;;;5.30;;
71753;SDS011;59593;51.716;7.016;2023-03-26T04:26:58;21.73;;;4.87;;
71753;SDS011;59593;51.716;7.016;2023-03-26T04:29:25;22.93;;;5.20;;
71753;SDS011;59593;51.716;7.016;2023-03-26T04:31:53;24.37;;;4.60;;
71753;SDS011;59593;51.716;7.016;2023-03-26T04:34:30;25.33;;;5.10;;
71753;SDS011;59593;51.716;7.016;2023-03-26T04:36:57;26.37;;;5.23;;
71753;SDS011;59593;51.716;7.016;2023-03-26T04:39:23;21.23;;;5.07;;
71753;SDS011;59593;51.716;7.016;2023-03-26T04:41:53;19.77;;;4.63;;
71753;SDS011;59593;51.716;7.016;2023-03-26T04:44:19;25.03;;;5.33;;
71753;SDS011;59593;51.716;7.016;2023-03-26T04:46:46;25.57;;;5.37;;
71753;SDS011;59593;51.716;7.016;2023-03-26T04:49:13;25.27;;;5.30;;
71753;SDS011;59593;51.716;7.016;2023-03-26T04:51:38;23.60;;;5.07;;
71753;SDS011;59593;51.716;7.016;2023-03-26T04:54:10;22.90;;;4.87;;
71753;SDS011;59593;51.716;7.016;2023-03-26T04:56:45;26.50;;;5.13;;
71753;SDS011;59593;51.716;7.016;2023-03-26T04:59:25;25.07;;;5.37;;
71753;SDS011;59593;51.716;7.016;2023-03-26T05:01:54;23.33;;;5.53;;
71753;SDS011;59593;51.716;7.016;2023-03-26T05:04:22;21.07;;;5.20;;
71753;SDS011;59593;51.716;7.016;2023-03-26T05:06:48;21.63;;;5.33;;
71753;SDS011;59593;51.716;7.016;2023-03-26T05:09:14;24.63;;;5.67;;
71753;SDS011;59593;51.716;7.016;2023-03-26T05:11:40;22.67;;;4.93;;
71753;SDS011;59593;51.716;7.016;2023-03-26T05:14:06;23.03;;;5.47;;
71753;SDS011;59593;51.716;7.016;2023-03-26T05:16:32;28.33;;;5.60;;
71753;SDS011;59593;51.716;7.016;2023-03-26T05:18:58;24.90;;;5.70;;
71753;SDS011;59593;51.716;7.016;2023-03-26T05:21:24;23.63;;;5.50;;
71753;SDS011;59593;51.716;7.016;2023-03-26T05:23:50;26.97;;;6.20;;
71753;SDS011;59593;51.716;7.016;2023-03-26T05:26:16;24.90;;;5.43;;
71753;SDS011;59593;51.716;7.016;2023-03-26T05:28:42;25.33;;;6.07;;
71753;SDS011;59593;51.716;7.016;2023-03-26T05:31:08;24.23;;;6.43;;
71753;SDS011;59593;51.716;7.016;2023-03-26T05:33:34;23.33;;;6.03;;
71753;SDS011;59593;51.716;7.016;2023-03-26T05:36:01;21.83;;;5.67;;
71753;SDS011;59593;51.716;7.016;2023-03-26T05:38:33;21.23;;;5.50;;
71753;SDS011;59593;51.716;7.016;2023-03-26T05:41:00;24.23;;;5.50;;
71753;SDS011;59593;51.716;7.016;2023-03-26T05:43:27;24.37;;;5.87;;
71753;SDS011;59593;51.716;7.016;2023-03-26T05:45:53;21.50;;;5.70;;
71753;SDS011;59593;51.716;7.016;2023-03-26T05:48:19;22.83;;;5.80;;
71753;SDS011;59593;51.716;7.016;2023-03-26T05:50:46;22.17;;;5.57;;
71753;SDS011;59593;51.716;7.016;2023-03-26T05:53:16;21.60;;;5.47;;
71753;SDS011;59593;51.716;7.016;2023-03-26T05:55:43;24.97;;;5.63;;
71753;SDS011;59593;51.716;7.016;2023-03-26T05:58:21;20.80;;;5.50;;
71753;SDS011;59593;51.716;7.016;2023-03-26T06:00:55;29.03;;;5.90;;
71753;SDS011;59593;51.716;7.016;2023-03-26T06:03:32;24.20;;;5.50;;
71753;SDS011;59593;51.716;7.016;2023-03-26T06:06:00;26.00;;;5.33;;
71753;SDS011;59593;51.716;7.016;2023-03-26T06:08:26;23.47;;;5.67;;
71753;SDS011;59593;51.716;7.016;2023-03-26T06:10:58;21.27;;;5.87;;
71753;SDS011;59593;51.716;7.016;2023-03-26T06:13:25;21.97;;;6.00;;
71753;SDS011;59593;51.716;7.016;2023-03-26T06:15:51;26.23;;;5.70;;
71753;SDS011;59593;51.716;7.016;2023-03-26T06:18:17;24.43;;;6.03;;
71753;SDS011;59593;51.716;7.016;2023-03-26T06:20:43;24.97;;;6.10;;
71753;SDS011;59593;51.716;7.016;2023-03-26T06:23:09;20.20;;;6.17;;
71753;SDS011;59593;51.716;7.016;2023-03-26T06:25:35;22.53;;;5.57;;
71753;SDS011;59593;51.716;7.016;2023-03-26T06:28:01;24.00;;;5.53;;
71753;SDS011;59593;51.716;7.016;2023-03-26T06:30:27;27.10;;;6.13;;
71753;SDS011;59593;51.716;7.016;2023-03-26T06:32:52;21.33;;;5.27;;
71753;SDS011;59593;51.716;7.016;2023-03-26T06:35:18;19.07;;;5.40;;
71753;SDS011;59593;51.716;7.016;2023-03-26T06:37:44;23.60;;;6.37;;
71753;SDS011;59593;51.716;7.016;2023-03-26T06:40:10;17.73;;;5.37;;
71753;SDS011;59593;51.716;7.016;2023-03-26T06:42:36;19.70;;;4.93;;
71753;SDS011;59593;51.716;7.016;2023-03-26T06:45:02;28.43;;;5.93;;
71753;SDS011;59593;51.716;7.016;2023-03-26T06:47:28;18.90;;;5.43;;
71753;SDS011;59593;51.716;7.016;2023-03-26T06:49:53;23.27;;;5.57;;
71753;SDS011;59593;51.716;7.016;2023-03-26T06:52:19;24.60;;;5.93;;
71753;SDS011;59593;51.716;7.016;2023-03-26T06:54:45;23.83;;;5.73;;
71753;SDS011;59593;51.716;7.016;2023-03-26T06:57:10;22.03;;;5.70;;
71753;SDS011;59593;51.716;7.016;2023-03-26T06:59:36;24.17;;;5.63;;
71753;SDS011;59593;51.716;7.016;2023-03-26T07:02:02;21.27;;;5.80;;
71753;SDS011;59593;51.716;7.016;2023-03-26T07:04:28;23.60;;;5.50;;
71753;SDS011;59593;51.716;7.016;2023-03-26T07:06:53;28.20;;;5.43;;
71753;SDS011;59593;51.716;7.016;2023-03-26T07:09:19;26.83;;;6.30;;
71753;SDS011;59593;51.716;7.016;2023-03-26T07:11:45;26.10;;;6.40;;
71753;SDS011;59593;51.716;7.016;2023-03-26T07:14:11;23.83;;;5.13;;
71753;SDS011;59593;51.716;7.016;2023-03-26T07:16:38;26.43;;;5.70;;
71753;SDS011;59593;51.716;7.016;2023-03-26T07:19:03;27.30;;;5.83;;
71753;SDS011;59593;51.716;7.016;2023-03-26T07:21:29;25.47;;;5.50;;
71753;SDS011;59593;51.716;7.016;2023-03-26T07:23:55;22.77;;;5.77;;
71753;SDS011;59593;51.716;7.016;2023-03-26T07:28:58;27.67;;;5.80;;
71753;SDS011;59593;51.716;7.016;2023-03-26T07:31:37;22.93;;;5.83;;
71753;SDS011;59593;51.716;7.016;2023-03-26T07:34:31;31.47;;;7.20;;
71753;SDS011;59593;51.716;7.016;2023-03-26T07:37:26;26.57;;;6.93;;
71753;SDS011;59593;51.716;7.016;2023-03-26T07:40:06;28.43;;;6.10;;
71753;SDS011;59593;51.716;7.016;2023-03-26T07:42:49;25.00;;;5.80;;
71753;SDS011;59593;51.716;7.016;2023-03-26T07:48:17;25.00;;;6.20;;
71753;SDS011;59593;51.716;7.016;2023-03-26T07:50:49;24.07;;;5.80;;
71753;SDS011;59593;51.716;7.016;2023-03-26T07:53:15;22.20;;;5.80;;
71753;SDS011;59593;51.716;7.016;2023-03-26T07:56:28;21.13;;;5.67;;
71753;SDS011;59593;51.716;7.016;2023-03-26T08:06:44;21.80;;;5.50;;
71753;SDS011;59593;51.716;7.016;2023-03-26T08:09:24;29.53;;;5.80;;
71753;SDS011;59593;51.716;7.016;2023-03-26T08:11:54;20.20;;;5.77;;
71753;SDS011;59593;51.716;7.016;2023-03-26T08:22:34;19.63;;;5.40;;
71753;SDS011;59593;51.716;7.016;2023-03-26T08:27:46;32.00;;;10.70;;
71753;SDS011;59593;51.716;7.016;2023-03-26T08:30:27;25.57;;;8.00;;
71753;SDS011;59593;51.716;7.016;2023-03-26T08:33:14;20.27;;;5.67;;
71753;SDS011;59593;51.716;7.016;2023-03-26T08:35:41;24.10;;;7.07;;
71753;SDS011;59593;51.716;7.016;2023-03-26T08:38:08;21.63;;;6.17;;
71753;SDS011;59593;51.716;7.016;2023-03-26T08:40:56;21.93;;;6.80;;
71753;SDS011;59593;51.716;7.016;2023-03-26T08:52:59;21.00;;;8.37;;
71753;SDS011;59593;51.716;7.016;2023-03-26T09:35:32;36.47;;;17.97;;
71753;SDS011;59593;51.716;7.016;2023-03-26T09:51:58;22.43;;;6.90;;
71753;SDS011;59593;51.716;7.016;2023-03-26T10:00:21;14.13;;;5.83;;
71753;SDS011;59593;51.716;7.016;2023-03-26T10:03:07;11.77;;;5.40;;
71753;SDS011;59593;51.716;7.016;2023-03-26T10:09:00;15.80;;;7.13;;
71753;SDS011;59593;51.716;7.016;2023-03-26T10:17:20;17.50;;;6.57;;
71753;SDS011;59593;51.716;7.016;2023-03-26T10:37:04;8.37;;;3.23;;
71753;SDS011;59593;51.716;7.016;2023-03-26T10:53:34;10.27;;;3.10;;
71753;SDS011;59593;51.716;7.016;2023-03-26T10:59:07;9.97;;;4.30;;
71753;SDS011;59593;51.716;7.016;2023-03-26T11:07:16;5.53;;;2.37;;
71753;SDS011;59593;51.716;7.016;2023-03-26T11:10:23;6.07;;;2.20;;
71753;SDS011;59593;51.716;7.016;2023-03-26T11:23:54;5.00;;;1.97;;
71753;SDS011;59593;51.716;7.016;2023-03-26T11:26:55;5.77;;;2.20;;
71753;SDS011;59593;51.716;7.016;2023-03-26T11:29:36;6.37;;;2.07;;
71753;SDS011;59593;51.716;7.016;2023-03-26T11:32:14;4.57;;;2.00;;
71753;SDS011;59593;51.716;7.016;2023-03-26T11:34:57;5.77;;;2.17;;
71753;SDS011;59593;51.716;7.016;2023-03-26T11:39:58;3.07;;;1.63;;
71753;SDS011;59593;51.716;7.016;2023-03-26T11:42:30;3.93;;;1.70;;
71753;SDS011;59593;51.716;7.016;2023-03-26T11:44:57;3.40;;;1.40;;
71753;SDS011;59593;51.716;7.016;2023-03-26T11:47:31;3.43;;;1.20;;
71753;SDS011;59593;51.716;7.016;2023-03-26T11:50:01;2.33;;;1.10;;
71753;SDS011;59593;51.716;7.016;2023-03-26T11:52:29;4.07;;;1.20;;
71753;SDS011;59593;51.716;7.016;2023-03-26T11:54:55;3.67;;;1.30;;
71753;SDS011;59593;51.716;7.016;2023-03-26T11:57:24;3.00;;;1.30;;
71753;SDS011;59593;51.716;7.016;2023-03-26T12:00:00;4.43;;;1.40;;
71753;SDS011;59593;51.716;7.016;2023-03-26T12:02:38;2.00;;;1.13;;
71753;SDS011;59593;51.716;7.016;2023-03-26T12:05:21;3.47;;;1.43;;
71753;SDS011;59593;51.716;7.016;2023-03-26T12:12:59;4.03;;;1.43;;
71753;SDS011;59593;51.716;7.016;2023-03-26T12:15:30;6.77;;;3.93;;
71753;SDS011;59593;51.716;7.016;2023-03-26T12:17:57;3.43;;;1.57;;
71753;SDS011;59593;51.716;7.016;2023-03-26T12:20:43;6.63;;;3.70;;
71753;SDS011;59593;51.716;7.016;2023-03-26T12:23:12;3.33;;;1.60;;
71753;SDS011;59593;51.716;7.016;2023-03-26T12:26:21;3.57;;;2.30;;
71753;SDS011;59593;51.716;7.016;2023-03-26T12:29:03;3.67;;;1.50;;
71753;SDS011;59593;51.716;7.016;2023-03-26T12:32:30;4.70;;;2.10;;
71753;SDS011;59593;51.716;7.016;2023-03-26T12:34:37;3.50;;;1.77;;
71753;SDS011;59593;51.716;7.016;2023-03-26T12:37:05;5.53;;;2.20;;
71753;SDS011;59593;51.716;7.016;2023-03-26T12:42:00;3.20;;;1.50;;
71753;SDS011;59593;51.716;7.016;2023-03-26T12:47:16;6.37;;;3.40;;
71753;SDS011;59593;51.716;7.016;2023-03-26T12:49:51;4.03;;;1.90;;
71753;SDS011;59593;51.716;7.016;2023-03-26T13:00:46;3.00;;;1.97;;
71753;SDS011;59593;51.716;7.016;2023-03-26T13:06:16;3.43;;;1.70;;
71753;SDS011;59593;51.716;7.016;2023-03-26T13:12:07;3.90;;;2.00;;
71753;SDS011;59593;51.716;7.016;2023-03-26T13:14:54;5.33;;;2.67;;
71753;SDS011;59593;51.716;7.016;2023-03-26T13:18:01;4.57;;;2.20;;
71753;SDS011;59593;51.716;7.016;2023-03-26T13:20:45;4.83;;;2.20;;
71753;SDS011;59593;51.716;7.016;2023-03-26T13:28:49;5.70;;;2.67;;
71753;SDS011;59593;51.716;7.016;2023-03-26T13:31:27;5.30;;;3.03;;
71753;SDS011;59593;51.716;7.016;2023-03-26T13:33:59;4.10;;;2.40;;
71753;SDS011;59593;51.716;7.016;2023-03-26T13:36:29;4.40;;;1.80;;
71753;SDS011;59593;51.716;7.016;2023-03-26T13:39:26;3.13;;;1.60;;
71753;SDS011;59593;51.716;7.016;2023-03-26T13:41:59;3.00;;;1.60;;
71753;SDS011;59593;51.716;7.016;2023-03-26T13:47:12;3.17;;;1.77;;
71753;SDS011;59593;51.716;7.016;2023-03-26T13:50:00;6.30;;;2.60;;
71753;SDS011;59593;51.716;7.016;2023-03-26T13:52:35;9.33;;;4.90;;
71753;SDS011;59593;51.716;7.016;2023-03-26T13:57:54;10.00;;;4.90;;
71753;SDS011;59593;51.716;7.016;2023-03-26T14:03:20;6.30;;;2.77;;
71753;SDS011;59593;51.716;7.016;2023-03-26T14:06:09;4.43;;;2.53;;
71753;SDS011;59593;51.716;7.016;2023-03-26T14:08:43;6.90;;;2.83;;
71753;SDS011;59593;51.716;7.016;2023-03-26T14:11:15;3.57;;;2.10;;
71753;SDS011;59593;51.716;7.016;2023-03-26T14:16:35;3.13;;;2.30;;
71753;SDS011;59593;51.716;7.016;2023-03-26T14:22:22;4.13;;;2.70;;
71753;SDS011;59593;51.716;7.016;2023-03-26T14:24:52;7.13;;;2.63;;
71753;SDS011;59593;51.716;7.016;2023-03-26T14:27:50;6.67;;;2.90;;
71753;SDS011;59593;51.716;7.016;2023-03-26T14:30:36;7.50;;;3.90;;
71753;SDS011;59593;51.716;7.016;2023-03-26T14:41:24;6.70;;;3.47;;
71753;SDS011;59593;51.716;7.016;2023-03-26T14:47:06;7.60;;;3.97;;
71753;SDS011;59593;51.716;7.016;2023-03-26T14:54:38;6.40;;;4.33;;
71753;SDS011;59593;51.716;7.016;2023-03-26T15:09:09;15.37;;;5.83;;
71753;SDS011;59593;51.716;7.016;2023-03-26T15:11:52;17.20;;;6.37;;
71753;SDS011;59593;51.716;7.016;2023-03-26T15:28:59;20.90;;;6.40;;
71753;SDS011;59593;51.716;7.016;2023-03-26T15:36:53;20.67;;;5.80;;
71753;SDS011;59593;51.716;7.016;2023-03-26T15:42:45;16.90;;;5.73;;
71753;SDS011;59593;51.716;7.016;2023-03-26T15:45:42;20.60;;;5.37;;
71753;SDS011;59593;51.716;7.016;2023-03-26T15:53:56;25.30;;;7.57;;
71753;SDS011;59593;51.716;7.016;2023-03-26T16:07:56;17.63;;;4.60;;
71753;SDS011;59593;51.716;7.016;2023-03-26T16:13:26;16.63;;;5.43;;
71753;SDS011;59593;51.716;7.016;2023-03-26T16:26:36;17.07;;;4.50;;
71753;SDS011;59593;51.716;7.016;2023-03-26T16:34:36;9.77;;;3.67;;
71753;SDS011;59593;51.716;7.016;2023-03-26T16:43:05;11.37;;;3.67;;
71753;SDS011;59593;51.716;7.016;2023-03-26T16:46:04;15.80;;;4.13;;
71753;SDS011;59593;51.716;7.016;2023-03-26T17:06:19;17.43;;;6.03;;
71753;SDS011;59593;51.716;7.016;2023-03-26T17:17:29;13.87;;;3.93;;
71753;SDS011;59593;51.716;7.016;2023-03-26T17:20:16;12.10;;;4.73;;
71753;SDS011;59593;51.716;7.016;2023-03-26T17:23:01;10.87;;;4.50;;
71753;SDS011;59593;51.716;7.016;2023-03-26T17:31:23;14.83;;;4.90;;
71753;SDS011;59593;51.716;7.016;2023-03-26T17:36:59;14.47;;;4.60;;
71753;SDS011;59593;51.716;7.016;2023-03-26T17:42:25;11.97;;;3.80;;
71753;SDS011;59593;51.716;7.016;2023-03-26T17:50:15;12.63;;;3.40;;
71753;SDS011;59593;51.716;7.016;2023-03-26T17:52:55;11.27;;;2.80;;
71753;SDS011;59593;51.716;7.016;2023-03-26T17:55:30;13.97;;;3.27;;
71753;SDS011;59593;51.716;7.016;2023-03-26T17:57:59;13.83;;;3.00;;
71753;SDS011;59593;51.716;7.016;2023-03-26T18:00:28;10.27;;;3.10;;
71753;SDS011;59593;51.716;7.016;2023-03-26T18:03:04;10.63;;;3.17;;
71753;SDS011;59593;51.716;7.016;2023-03-26T18:05:41;10.80;;;3.30;;
71753;SDS011;59593;51.716;7.016;2023-03-26T18:10:46;14.83;;;3.10;;
71753;SDS011;59593;51.716;7.016;2023-03-26T18:16:12;14.63;;;3.33;;
71753;SDS011;59593;51.716;7.016;2023-03-26T18:18:48;18.40;;;3.67;;
71753;SDS011;59593;51.716;7.016;2023-03-26T18:21:23;14.53;;;3.67;;
71753;SDS011;59593;51.716;7.016;2023-03-26T18:23:52;12.33;;;3.10;;
71753;SDS011;59593;51.716;7.016;2023-03-26T18:31:44;14.30;;;3.33;;
71753;SDS011;59593;51.716;7.016;2023-03-26T18:34:13;10.03;;;3.33;;
71753;SDS011;59593;51.716;7.016;2023-03-26T18:36:44;21.37;;;3.50;;
71753;SDS011;59593;51.716;7.016;2023-03-26T18:39:11;11.47;;;3.20;;
71753;SDS011;59593;51.716;7.016;2023-03-26T18:41:37;13.50;;;3.37;;
71753;SDS011;59593;51.716;7.016;2023-03-26T18:44:06;11.30;;;3.40;;
71753;SDS011;59593;51.716;7.016;2023-03-26T18:46:38;10.03;;;2.70;;
71753;SDS011;59593;51.716;7.016;2023-03-26T18:49:05;12.37;;;3.83;;
71753;SDS011;59593;51.716;7.016;2023-03-26T18:51:31;9.73;;;2.70;;
71753;SDS011;59593;51.716;7.016;2023-03-26T18:53:57;10.87;;;2.80;;
71753;SDS011;59593;51.716;7.016;2023-03-26T18:56:30;13.13;;;2.80;;
71753;SDS011;59593;51.716;7.016;2023-03-26T18:59:04;11.87;;;2.93;;
71753;SDS011;59593;51.716;7.016;2023-03-26T19:01:44;9.67;;;2.53;;
71753;SDS011;59593;51.716;7.016;2023-03-26T19:04:12;13.87;;;2.60;;
71753;SDS011;59593;51.716;7.016;2023-03-26T19:06:40;13.07;;;2.40;;
71753;SDS011;59593;51.716;7.016;2023-03-26T19:09:07;9.50;;;2.77;;
71753;SDS011;59593;51.716;7.016;2023-03-26T19:11:38;13.17;;;2.80;;
71753;SDS011;59593;51.716;7.016;2023-03-26T19:14:06;14.53;;;3.03;;
71753;SDS011;59593;51.716;7.016;2023-03-26T19:16:39;8.13;;;2.67;;
71753;SDS011;59593;51.716;7.016;2023-03-26T19:19:07;8.80;;;2.23;;
71753;SDS011;59593;51.716;7.016;2023-03-26T19:21:40;9.33;;;2.47;;
71753;SDS011;59593;51.716;7.016;2023-03-26T19:24:06;12.27;;;2.67;;
71753;SDS011;59593;51.716;7.016;2023-03-26T19:26:32;13.13;;;2.83;;
71753;SDS011;59593;51.716;7.016;2023-03-26T19:29:00;12.33;;;2.83;;
71753;SDS011;59593;51.716;7.016;2023-03-26T19:31:34;14.80;;;3.00;;
71753;SDS011;59593;51.716;7.016;2023-03-26T19:36:30;12.97;;;2.37;;
71753;SDS011;59593;51.716;7.016;2023-03-26T19:44:18;9.80;;;2.17;;
71753;SDS011;59593;51.716;7.016;2023-03-26T19:46:51;12.73;;;2.30;;
71753;SDS011;59593;51.716;7.016;2023-03-26T19:52:01;9.70;;;2.10;;
71753;SDS011;59593;51.716;7.016;2023-03-26T19:54:59;10.10;;;2.40;;
71753;SDS011;59593;51.716;7.016;2023-03-26T19:57:27;14.43;;;3.27;;
71753;SDS011;59593;51.716;7.016;2023-03-26T19:59:54;11.93;;;2.40;;
71753;SDS011;59593;51.716;7.016;2023-03-26T20:02:20;14.57;;;2.40;;
71753;SDS011;59593;51.716;7.016;2023-03-26T20:04:46;11.00;;;2.03;;
71753;SDS011;59593;51.716;7.016;2023-03-26T20:07:22;13.53;;;2.60;;
71753;SDS011;59593;51.716;7.016;2023-03-26T20:09:54;10.03;;;2.03;;
71753;SDS011;59593;51.716;7.016;2023-03-26T20:12:21;12.77;;;2.63;;
71753;SDS011;59593;51.716;7.016;2023-03-26T20:14:46;9.57;;;2.23;;
71753;SDS011;59593;51.716;7.016;2023-03-26T20:17:16;10.03;;;2.40;;
71753;SDS011;59593;51.716;7.016;2023-03-26T20:19:45;11.87;;;2.67;;
71753;SDS011;59593;51.716;7.016;2023-03-26T20:22:12;15.80;;;2.40;;
71753;SDS011;59593;51.716;7.016;2023-03-26T20:24:39;11.93;;;2.20;;
71753;SDS011;59593;51.716;7.016;2023-03-26T20:27:06;12.30;;;2.20;;
71753;SDS011;59593;51.716;7.016;2023-03-26T20:29:32;17.87;;;3.30;;
71753;SDS011;59593;51.716;7.016;2023-03-26T20:31:58;13.47;;;2.33;;
71753;SDS011;59593;51.716;7.016;2023-03-26T20:34:23;15.57;;;2.50;;
71753;SDS011;59593;51.716;7.016;2023-03-26T20:36:50;12.07;;;2.47;;
71753;SDS011;59593;51.716;7.016;2023-03-26T20:39:19;8.67;;;2.33;;
71753;SDS011;59593;51.716;7.016;2023-03-26T20:41:47;14.03;;;2.60;;
71753;SDS011;59593;51.716;7.016;2023-03-26T20:44:15;13.37;;;2.20;;
71753;SDS011;59593;51.716;7.016;2023-03-26T20:46:42;12.33;;;2.70;;
71753;SDS011;59593;51.716;7.016;2023-03-26T20:49:12;7.13;;;1.80;;
71753;SDS011;59593;51.716;7.016;2023-03-26T20:51:39;14.07;;;2.20;;
71753;SDS011;59593;51.716;7.016;2023-03-26T20:54:07;15.40;;;3.07;;
71753;SDS011;59593;51.716;7.016;2023-03-26T20:56:41;12.97;;;3.17;;
71753;SDS011;59593;51.716;7.016;2023-03-26T20:59:12;8.23;;;2.00;;
71753;SDS011;59593;51.716;7.016;2023-03-26T21:01:43;12.70;;;2.87;;
71753;SDS011;59593;51.716;7.016;2023-03-26T21:04:11;11.13;;;2.23;;
71753;SDS011;59593;51.716;7.016;2023-03-26T21:06:37;11.37;;;2.60;;
71753;SDS011;59593;51.716;7.016;2023-03-26T21:09:03;14.47;;;2.40;;
71753;SDS011;59593;51.716;7.016;2023-03-26T21:14:20;13.87;;;2.20;;
71753;SDS011;59593;51.716;7.016;2023-03-26T21:17:26;12.33;;;2.53;;
71753;SDS011;59593;51.716;7.016;2023-03-26T21:19:52;13.70;;;2.70;;